sensor_id;sensor_type;location;lat;lon;timestamp;pressure;altitude;pressure_sealevel;temperature;humidity
49342;BME280;35210;41.606;-87.602;2024-03-08T00:00:12;99687.75;;;10.45;76.65
49342;BME280;35210;41.606;-87.602;2024-03-08T00:02:45;99684.00;;;10.36;77.03
49342;BME280;35210;41.606;-87.602;2024-03-08T00:05:14;99684.22;;;10.33;77.53
49342;BME280;35210;41.606;-87.602;2024-03-08T00:07:44;99693.59;;;10.37;77.94
49342;BME280;35210;41.606;-87.602;2024-03-08T00:10:14;99686.75;;;10.35;77.49
49342;BME280;35210;41.606;-87.602;2024-03-08T00:12:44;99682.00;;;10.27;77.39
49342;BME280;35210;41.606;-87.602;2024-03-08T00:15:13;99682.84;;;10.28;78.08
49342;BME280;35210;41.606;-87.602;2024-03-08T00:17:41;99680.31;;;10.26;77.99
49342;BME280;35210;41.606;-87.602;2024-03-08T00:20:10;99687.41;;;10.26;78.46
49342;BME280;35210;41.606;-87.602;2024-03-08T00:22:39;99680.44;;;10.25;77.75
49342;BME280;35210;41.606;-87.602;2024-03-08T00:25:08;99684.44;;;10.30;77.40
49342;BME280;35210;41.606;-87.602;2024-03-08T00:27:38;99685.59;;;10.26;76.75
49342;BME280;35210;41.606;-87.602;2024-03-08T00:30:07;99682.56;;;10.19;78.04
49342;BME280;35210;41.606;-87.602;2024-03-08T00:32:37;99690.78;;;10.15;77.11
49342;BME280;35210;41.606;-87.602;2024-03-08T00:35:05;99685.72;;;10.12;76.95
49342;BME280;35210;41.606;-87.602;2024-03-08T00:37:34;99684.47;;;10.05;77.50
49342;BME280;35210;41.606;-87.602;2024-03-08T00:40:04;99684.47;;;10.05;77.48
49342;BME280;35210;41.606;-87.602;2024-03-08T00:42:33;99669.47;;;10.05;77.55
49342;BME280;35210;41.606;-87.602;2024-03-08T00:45:03;99674.13;;;10.02;77.89
49342;BME280;35210;41.606;-87.602;2024-03-08T00:47:31;99684.69;;;10.02;77.56
49342;BME280;35210;41.606;-87.602;2024-03-08T00:49:59;99677.28;;;10.07;77.50
49342;BME280;35210;41.606;-87.602;2024-03-08T00:52:30;99682.56;;;10.07;78.05
49342;BME280;35210;41.606;-87.602;2024-03-08T00:54:58;99678.97;;;10.08;77.27
49342;BME280;35210;41.606;-87.602;2024-03-08T00:57:26;99687.44;;;10.00;78.41
49342;BME280;35210;41.606;-87.602;2024-03-08T00:59:54;99693.84;;;10.09;79.30
49342;BME280;35210;41.606;-87.602;2024-03-08T01:02:25;99685.72;;;10.12;78.48
49342;BME280;35210;41.606;-87.602;2024-03-08T01:04:53;99683.81;;;10.14;78.64
49342;BME280;35210;41.606;-87.602;2024-03-08T01:07:21;99691.00;;;10.12;78.83
49342;BME280;35210;41.606;-87.602;2024-03-08T01:09:49;99686.88;;;10.20;79.01
49342;BME280;35210;41.606;-87.602;2024-03-08T01:12:17;99689.94;;;10.27;77.68
49342;BME280;35210;41.606;-87.602;2024-03-08T01:14:46;99691.09;;;10.23;78.24
49342;BME280;35210;41.606;-87.602;2024-03-08T01:17:14;99690.25;;;10.23;78.83
49342;BME280;35210;41.606;-87.602;2024-03-08T01:19:45;99691.84;;;10.25;78.78
49342;BME280;35210;41.606;-87.602;2024-03-08T01:22:14;99694.03;;;10.31;79.05
49342;BME280;35210;41.606;-87.602;2024-03-08T01:24:42;99687.75;;;10.45;78.25
49342;BME280;35210;41.606;-87.602;2024-03-08T01:27:10;99683.91;;;10.49;76.17
49342;BME280;35210;41.606;-87.602;2024-03-08T01:29:39;99690.56;;;10.54;76.33
49342;BME280;35210;41.606;-87.602;2024-03-08T01:32:07;99688.34;;;10.48;76.95
49342;BME280;35210;41.606;-87.602;2024-03-08T01:34:35;99686.44;;;10.50;78.09
49342;BME280;35210;41.606;-87.602;2024-03-08T01:37:05;99679.25;;;10.52;77.67
49342;BME280;35210;41.606;-87.602;2024-03-08T01:39:34;99684.44;;;10.54;77.60
49342;BME280;35210;41.606;-87.602;2024-03-08T01:42:02;99686.84;;;10.57;77.84
49342;BME280;35210;41.606;-87.602;2024-03-08T01:44:30;99684.81;;;10.61;76.90
49342;BME280;35210;41.606;-87.602;2024-03-08T01:46:59;99688.72;;;10.68;76.56
49342;BME280;35210;41.606;-87.602;2024-03-08T01:49:31;99687.88;;;10.67;76.14
49342;BME280;35210;41.606;-87.602;2024-03-08T01:51:59;99678.38;;;10.65;75.72
49342;BME280;35210;41.606;-87.602;2024-03-08T01:54:30;99673.31;;;10.62;75.35
49342;BME280;35210;41.606;-87.602;2024-03-08T01:56:59;99678.16;;;10.68;75.70
49342;BME280;35210;41.606;-87.602;2024-03-08T01:59:28;99680.44;;;10.72;75.74
49342;BME280;35210;41.606;-87.602;2024-03-08T02:02:01;99682.47;;;10.69;75.59
49342;BME280;35210;41.606;-87.602;2024-03-08T02:04:32;99688.38;;;10.72;74.50
49342;BME280;35210;41.606;-87.602;2024-03-08T02:07:00;99675.63;;;10.66;75.20
49342;BME280;35210;41.606;-87.602;2024-03-08T02:09:33;99675.72;;;10.65;75.61
49342;BME280;35210;41.606;-87.602;2024-03-08T02:12:01;99681.22;;;10.62;76.23
49342;BME280;35210;41.606;-87.602;2024-03-08T02:14:30;99677.63;;;10.63;75.08
49342;BME280;35210;41.606;-87.602;2024-03-08T02:17:02;99676.47;;;10.67;75.43
49342;BME280;35210;41.606;-87.602;2024-03-08T02:19:31;99669.59;;;10.64;75.52
49342;BME280;35210;41.606;-87.602;2024-03-08T02:22:01;99669.72;;;10.63;76.47
49342;BME280;35210;41.606;-87.602;2024-03-08T02:24:30;99674.25;;;10.61;76.14
49342;BME280;35210;41.606;-87.602;2024-03-08T02:26:59;99667.06;;;10.63;76.28
49342;BME280;35210;41.606;-87.602;2024-03-08T02:29:27;99674.53;;;10.69;74.73
49342;BME280;35210;41.606;-87.602;2024-03-08T02:31:56;99675.84;;;10.63;75.34
49342;BME280;35210;41.606;-87.602;2024-03-08T02:34:24;99671.06;;;10.68;74.90
49342;BME280;35210;41.606;-87.602;2024-03-08T02:36:52;99667.81;;;10.65;75.55
49342;BME280;35210;41.606;-87.602;2024-03-08T02:39:24;99676.47;;;10.67;75.96
49342;BME280;35210;41.606;-87.602;2024-03-08T02:41:53;99675.66;;;10.77;75.64
49342;BME280;35210;41.606;-87.602;2024-03-08T02:44:22;99674.81;;;10.77;74.83
49342;BME280;35210;41.606;-87.602;2024-03-08T02:46:50;99667.13;;;10.74;75.58
49342;BME280;35210;41.606;-87.602;2024-03-08T02:49:21;99674.09;;;10.75;75.78
49342;BME280;35210;41.606;-87.602;2024-03-08T02:51:50;99671.97;;;10.80;74.60
49342;BME280;35210;41.606;-87.602;2024-03-08T02:54:18;99664.75;;;10.82;74.27
49342;BME280;35210;41.606;-87.602;2024-03-08T02:56:48;99660.78;;;10.76;73.66
49342;BME280;35210;41.606;-87.602;2024-03-08T02:59:17;99665.66;;;10.70;73.79
49342;BME280;35210;41.606;-87.602;2024-03-08T03:01:45;99664.66;;;10.60;74.84
49342;BME280;35210;41.606;-87.602;2024-03-08T03:04:15;99667.84;;;10.52;75.37
49342;BME280;35210;41.606;-87.602;2024-03-08T03:06:44;99666.34;;;10.61;74.38
49342;BME280;35210;41.606;-87.602;2024-03-08T03:09:12;99662.53;;;10.65;73.92
49342;BME280;35210;41.606;-87.602;2024-03-08T03:11:44;99671.63;;;10.61;74.10
49342;BME280;35210;41.606;-87.602;2024-03-08T03:14:14;99677.97;;;10.58;72.96
49342;BME280;35210;41.606;-87.602;2024-03-08T03:16:42;99676.63;;;10.52;74.41
49342;BME280;35210;41.606;-87.602;2024-03-08T03:19:12;99680.44;;;10.48;74.46
49342;BME280;35210;41.606;-87.602;2024-03-08T03:21:41;99676.34;;;10.44;74.14
49342;BME280;35210;41.606;-87.602;2024-03-08T03:24:09;99671.56;;;10.49;74.03
49342;BME280;35210;41.606;-87.602;2024-03-08T03:26:38;99674.22;;;10.49;73.79
49342;BME280;35210;41.606;-87.602;2024-03-08T03:29:07;99680.88;;;10.42;73.96
49342;BME280;35210;41.606;-87.602;2024-03-08T03:31:37;99677.28;;;10.43;74.27
49342;BME280;35210;41.606;-87.602;2024-03-08T03:34:06;99681.16;;;10.50;74.03
49342;BME280;35210;41.606;-87.602;2024-03-08T03:36:34;99680.09;;;10.53;73.80
49342;BME280;35210;41.606;-87.602;2024-03-08T03:39:04;99672.47;;;10.61;73.16
49342;BME280;35210;41.606;-87.602;2024-03-08T03:41:40;99667.41;;;10.58;74.37
49342;BME280;35210;41.606;-87.602;2024-03-08T03:44:08;99661.50;;;10.54;74.32
49342;BME280;35210;41.606;-87.602;2024-03-08T03:46:37;99663.66;;;10.49;74.57
49342;BME280;35210;41.606;-87.602;2024-03-08T03:49:10;99664.66;;;10.60;73.49
49342;BME280;35210;41.606;-87.602;2024-03-08T03:51:40;99669.31;;;10.56;73.71
49342;BME280;35210;41.606;-87.602;2024-03-08T03:54:08;99667.53;;;10.57;74.00
49342;BME280;35210;41.606;-87.602;2024-03-08T03:56:36;99663.69;;;10.61;73.74
49342;BME280;35210;41.606;-87.602;2024-03-08T03:59:06;99669.53;;;10.53;74.16
49342;BME280;35210;41.606;-87.602;2024-03-08T04:01:34;99668.69;;;10.52;74.53
49342;BME280;35210;41.606;-87.602;2024-03-08T04:04:04;99658.13;;;10.52;74.38
49342;BME280;35210;41.606;-87.602;2024-03-08T04:06:32;99658.03;;;10.54;75.65
49342;BME280;35210;41.606;-87.602;2024-03-08T04:09:00;99657.06;;;10.55;74.98
49342;BME280;35210;41.606;-87.602;2024-03-08T04:11:28;99670.16;;;10.57;74.98
49342;BME280;35210;41.606;-87.602;2024-03-08T04:13:56;99656.75;;;10.60;74.15
49342;BME280;35210;41.606;-87.602;2024-03-08T04:16:24;99659.16;;;10.63;74.67
49342;BME280;35210;41.606;-87.602;2024-03-08T04:18:52;99653.75;;;10.64;74.78
49342;BME280;35210;41.606;-87.602;2024-03-08T04:21:22;99649.25;;;10.77;73.83
49342;BME280;35210;41.606;-87.602;2024-03-08T04:23:50;99638.31;;;10.71;74.59
49342;BME280;35210;41.606;-87.602;2024-03-08T04:26:18;99635.31;;;10.75;73.78
49342;BME280;35210;41.606;-87.602;2024-03-08T04:28:46;99629.91;;;10.77;74.24
49342;BME280;35210;41.606;-87.602;2024-03-08T04:31:15;99640.22;;;10.69;74.17
49342;BME280;35210;41.606;-87.602;2024-03-08T04:33:43;99637.06;;;10.64;75.29
49342;BME280;35210;41.606;-87.602;2024-03-08T04:36:11;99638.03;;;10.63;75.88
49342;BME280;35210;41.606;-87.602;2024-03-08T04:38:42;99632.53;;;10.66;75.35
49342;BME280;35210;41.606;-87.602;2024-03-08T04:41:12;99620.03;;;10.68;75.27
49342;BME280;35210;41.606;-87.602;2024-03-08T04:43:40;99613.06;;;10.67;75.95
49342;BME280;35210;41.606;-87.602;2024-03-08T04:46:09;99608.13;;;10.62;76.33
49342;BME280;35210;41.606;-87.602;2024-03-08T04:48:37;99611.41;;;10.66;76.48
49342;BME280;35210;41.606;-87.602;2024-03-08T04:51:05;99609.19;;;10.60;76.55
49342;BME280;35210;41.606;-87.602;2024-03-08T04:53:33;99615.66;;;10.56;76.89
49342;BME280;35210;41.606;-87.602;2024-03-08T04:56:03;99610.28;;;10.57;77.23
49342;BME280;35210;41.606;-87.602;2024-03-08T04:58:33;99599.72;;;10.57;77.65
49342;BME280;35210;41.606;-87.602;2024-03-08T05:01:03;99601.06;;;10.63;77.86
49342;BME280;35210;41.606;-87.602;2024-03-08T05:03:32;99593.63;;;10.68;78.01
49342;BME280;35210;41.606;-87.602;2024-03-08T05:06:00;99600.81;;;10.66;78.35
49342;BME280;35210;41.606;-87.602;2024-03-08T05:08:28;99609.72;;;10.65;78.53
49342;BME280;35210;41.606;-87.602;2024-03-08T05:10:57;99608.69;;;10.54;78.90
49342;BME280;35210;41.606;-87.602;2024-03-08T05:13:28;99607.53;;;10.59;78.83
49342;BME280;35210;41.606;-87.602;2024-03-08T05:15:56;99607.41;;;10.60;78.91
49342;BME280;35210;41.606;-87.602;2024-03-08T05:18:25;99602.97;;;10.61;79.04
49342;BME280;35210;41.606;-87.602;2024-03-08T05:20:54;99597.56;;;10.62;79.57
49342;BME280;35210;41.606;-87.602;2024-03-08T05:23:22;99590.03;;;10.69;79.36
49342;BME280;35210;41.606;-87.602;2024-03-08T05:25:51;99588.72;;;10.74;79.56
49342;BME280;35210;41.606;-87.602;2024-03-08T05:28:19;99587.41;;;10.69;79.36
49342;BME280;35210;41.606;-87.602;2024-03-08T05:30:49;99576.84;;;10.69;80.12
49342;BME280;35210;41.606;-87.602;2024-03-08T05:33:17;99568.22;;;10.78;78.52
49342;BME280;35210;41.606;-87.602;2024-03-08T05:35:45;99562.09;;;10.77;79.30
49342;BME280;35210;41.606;-87.602;2024-03-08T05:38:13;99553.31;;;10.77;79.63
49342;BME280;35210;41.606;-87.602;2024-03-08T05:40:42;99560.88;;;10.70;79.30
49342;BME280;35210;41.606;-87.602;2024-03-08T05:43:10;99555.25;;;10.75;80.05
49342;BME280;35210;41.606;-87.602;2024-03-08T05:45:38;99547.09;;;10.78;79.08
49342;BME280;35210;41.606;-87.602;2024-03-08T05:48:08;99547.56;;;10.72;79.38
49342;BME280;35210;41.606;-87.602;2024-03-08T05:50:38;99537.72;;;10.74;80.14
49342;BME280;35210;41.606;-87.602;2024-03-08T05:53:06;99535.31;;;10.71;80.48
49342;BME280;35210;41.606;-87.602;2024-03-08T05:55:34;99530.03;;;10.71;80.44
49342;BME280;35210;41.606;-87.602;2024-03-08T05:58:03;99524.97;;;10.68;80.91
49342;BME280;35210;41.606;-87.602;2024-03-08T06:00:34;99523.56;;;10.75;80.71
49342;BME280;35210;41.606;-87.602;2024-03-08T06:03:02;99522.09;;;10.71;80.98
49342;BME280;35210;41.606;-87.602;2024-03-08T06:05:32;99517.66;;;10.71;81.38
49342;BME280;35210;41.606;-87.602;2024-03-08T06:08:00;99518.38;;;10.73;80.93
49342;BME280;35210;41.606;-87.602;2024-03-08T06:10:28;99514.31;;;10.80;80.92
49342;BME280;35210;41.606;-87.602;2024-03-08T06:12:57;99511.56;;;10.82;80.49
49342;BME280;35210;41.606;-87.602;2024-03-08T06:15:26;99525.97;;;10.78;81.18
49342;BME280;35210;41.606;-87.602;2024-03-08T06:17:54;99532.69;;;10.82;80.17
49342;BME280;35210;41.606;-87.602;2024-03-08T06:20:22;99524.28;;;10.77;80.60
49342;BME280;35210;41.606;-87.602;2024-03-08T06:22:54;99529.31;;;10.80;81.30
49342;BME280;35210;41.606;-87.602;2024-03-08T06:25:22;99534.38;;;10.83;81.73
49342;BME280;35210;41.606;-87.602;2024-03-08T06:27:50;99534.38;;;10.83;81.49
49342;BME280;35210;41.606;-87.602;2024-03-08T06:30:19;99549.38;;;10.82;81.61
49342;BME280;35210;41.606;-87.602;2024-03-08T06:32:48;99546.63;;;10.84;81.52
49342;BME280;35210;41.606;-87.602;2024-03-08T06:35:16;99545.66;;;10.85;81.55
49342;BME280;35210;41.606;-87.602;2024-03-08T06:37:46;99553.59;;;10.85;81.87
49342;BME280;35210;41.606;-87.602;2024-03-08T06:40:17;99556.97;;;10.87;81.68
49342;BME280;35210;41.606;-87.602;2024-03-08T06:42:45;99549.75;;;10.89;81.78
49342;BME280;35210;41.606;-87.602;2024-03-08T06:45:13;99548.44;;;10.95;81.26
49342;BME280;35210;41.606;-87.602;2024-03-08T06:47:45;99535.59;;;10.90;80.77
49342;BME280;35210;41.606;-87.602;2024-03-08T06:50:13;99544.69;;;10.86;82.04
49342;BME280;35210;41.606;-87.602;2024-03-08T06:52:42;99552.41;;;10.89;82.28
49342;BME280;35210;41.606;-87.602;2024-03-08T06:55:10;99557.69;;;10.89;82.39
49342;BME280;35210;41.606;-87.602;2024-03-08T06:57:40;99563.53;;;10.81;83.04
49342;BME280;35210;41.606;-87.602;2024-03-08T07:00:09;99560.91;;;10.81;83.48
49342;BME280;35210;41.606;-87.602;2024-03-08T07:02:40;99551.91;;;10.84;83.33
49342;BME280;35210;41.606;-87.602;2024-03-08T07:05:11;99539.66;;;10.83;83.75
49342;BME280;35210;41.606;-87.602;2024-03-08T07:07:39;99532.72;;;10.93;82.38
49342;BME280;35210;41.606;-87.602;2024-03-08T07:10:08;99536.41;;;10.79;83.60
49342;BME280;35210;41.606;-87.602;2024-03-08T07:12:37;99520.41;;;10.70;84.79
49342;BME280;35210;41.606;-87.602;2024-03-08T07:15:07;99528.72;;;10.76;84.45
49342;BME280;35210;41.606;-87.602;2024-03-08T07:17:39;99529.78;;;10.74;84.88
49342;BME280;35210;41.606;-87.602;2024-03-08T07:20:11;99529.56;;;10.77;85.20
49342;BME280;35210;41.606;-87.602;2024-03-08T07:22:40;99530.88;;;10.82;84.42
49342;BME280;35210;41.606;-87.602;2024-03-08T07:25:08;99518.16;;;10.88;84.70
49342;BME280;35210;41.606;-87.602;2024-03-08T07:27:48;99516.13;;;10.91;84.15
49342;BME280;35210;41.606;-87.602;2024-03-08T07:30:17;99516.03;;;10.93;83.71
49342;BME280;35210;41.606;-87.602;2024-03-08T07:32:59;99522.03;;;11.06;83.63
49342;BME280;35210;41.606;-87.602;2024-03-08T07:35:28;99499.56;;;11.00;83.61
49342;BME280;35210;41.606;-87.602;2024-03-08T07:37:57;99501.00;;;10.93;84.32
49342;BME280;35210;41.606;-87.602;2024-03-08T07:40:26;99489.47;;;10.94;84.42
49342;BME280;35210;41.606;-87.602;2024-03-08T07:42:54;99482.03;;;10.99;84.63
49342;BME280;35210;41.606;-87.602;2024-03-08T07:45:24;99492.84;;;10.96;83.32
49342;BME280;35210;41.606;-87.602;2024-03-08T07:47:52;99485.03;;;10.95;84.56
49342;BME280;35210;41.606;-87.602;2024-03-08T07:50:22;99488.75;;;10.92;84.53
49342;BME280;35210;41.606;-87.602;2024-03-08T07:52:50;99482.03;;;10.88;85.10
49342;BME280;35210;41.606;-87.602;2024-03-08T07:55:18;99492.13;;;10.94;85.55
49342;BME280;35210;41.606;-87.602;2024-03-08T07:57:46;99484.44;;;10.91;84.92
49342;BME280;35210;41.606;-87.602;2024-03-08T08:00:16;99473.97;;;10.90;85.40
49342;BME280;35210;41.606;-87.602;2024-03-08T08:02:46;99480.22;;;10.89;84.76
49342;BME280;35210;41.606;-87.602;2024-03-08T08:05:16;99472.19;;;10.90;85.33
49342;BME280;35210;41.606;-87.602;2024-03-08T08:07:45;99459.81;;;10.91;85.11
49342;BME280;35210;41.606;-87.602;2024-03-08T08:10:13;99455.63;;;10.99;83.83
49342;BME280;35210;41.606;-87.602;2024-03-08T08:12:44;99457.31;;;11.00;84.68
49342;BME280;35210;41.606;-87.602;2024-03-08T08:15:13;99458.38;;;10.98;84.73
49342;BME280;35210;41.606;-87.602;2024-03-08T08:17:42;99448.88;;;10.95;84.87
49342;BME280;35210;41.606;-87.602;2024-03-08T08:20:12;99440.97;;;10.95;85.20
49342;BME280;35210;41.606;-87.602;2024-03-08T08:22:41;99438.19;;;10.97;85.37
49342;BME280;35210;41.606;-87.602;2024-03-08T08:25:10;99426.44;;;11.01;85.18
49342;BME280;35210;41.606;-87.602;2024-03-08T08:27:39;99418.16;;;11.05;84.45
49342;BME280;35210;41.606;-87.602;2024-03-08T08:30:09;99416.81;;;11.11;84.70
49342;BME280;35210;41.606;-87.602;2024-03-08T08:32:38;99404.56;;;11.10;84.12
49342;BME280;35210;41.606;-87.602;2024-03-08T08:35:08;99420.19;;;11.13;84.46
49342;BME280;35210;41.606;-87.602;2024-03-08T08:37:40;99416.94;;;11.09;85.03
49342;BME280;35210;41.606;-87.602;2024-03-08T08:40:09;99428.47;;;11.08;84.95
49342;BME280;35210;41.606;-87.602;2024-03-08T08:42:41;99430.16;;;11.09;84.88
49342;BME280;35210;41.606;-87.602;2024-03-08T08:45:09;99431.00;;;11.10;85.42
49342;BME280;35210;41.606;-87.602;2024-03-08T08:47:37;99424.22;;;11.17;85.08
49342;BME280;35210;41.606;-87.602;2024-03-08T08:50:09;99421.03;;;11.13;84.59
49342;BME280;35210;41.606;-87.602;2024-03-08T08:52:38;99417.38;;;11.14;84.75
49342;BME280;35210;41.606;-87.602;2024-03-08T08:55:09;99416.19;;;11.18;84.58
49342;BME280;35210;41.606;-87.602;2024-03-08T08:57:40;99419.53;;;11.20;84.03
49342;BME280;35210;41.606;-87.602;2024-03-08T09:00:09;99412.22;;;11.24;83.92
49342;BME280;35210;41.606;-87.602;2024-03-08T09:02:41;99403.81;;;11.19;84.69
49342;BME280;35210;41.606;-87.602;2024-03-08T09:05:09;99397.69;;;11.18;84.93
49342;BME280;35210;41.606;-87.602;2024-03-08T09:07:37;99397.69;;;11.18;84.87
49342;BME280;35210;41.606;-87.602;2024-03-08T09:10:08;99414.38;;;11.19;85.33
49342;BME280;35210;41.606;-87.602;2024-03-08T09:12:38;99393.94;;;11.21;84.51
49342;BME280;35210;41.606;-87.602;2024-03-08T09:15:07;99402.47;;;11.25;84.54
49342;BME280;35210;41.606;-87.602;2024-03-08T09:17:37;99405.47;;;11.20;84.91
49342;BME280;35210;41.606;-87.602;2024-03-08T09:20:07;99398.41;;;11.20;85.07
49342;BME280;35210;41.606;-87.602;2024-03-08T09:22:36;99403.69;;;11.20;85.47
49342;BME280;35210;41.606;-87.602;2024-03-08T09:25:08;99400.44;;;11.17;84.93
49342;BME280;35210;41.606;-87.602;2024-03-08T09:27:36;99397.41;;;11.33;83.98
49342;BME280;35210;41.606;-87.602;2024-03-08T09:30:07;99402.81;;;11.31;84.13
49342;BME280;35210;41.606;-87.602;2024-03-08T09:32:35;99400.53;;;11.27;84.40
49342;BME280;35210;41.606;-87.602;2024-03-08T09:35:04;99389.47;;;11.33;83.88
49342;BME280;35210;41.606;-87.602;2024-03-08T09:37:34;99396.94;;;11.28;84.03
49342;BME280;35210;41.606;-87.602;2024-03-08T09:40:02;99395.03;;;11.18;85.00
49342;BME280;35210;41.606;-87.602;2024-03-08T09:45:59;99394.78;;;11.22;84.80
49342;BME280;35210;41.606;-87.602;2024-03-08T09:48:27;99392.28;;;11.20;85.00
49342;BME280;35210;41.606;-87.602;2024-03-08T09:50:55;99396.00;;;11.17;85.76
49342;BME280;35210;41.606;-87.602;2024-03-08T09:53:24;99394.31;;;11.16;86.11
49342;BME280;35210;41.606;-87.602;2024-03-08T09:55:52;99395.75;;;11.20;86.06
49342;BME280;35210;41.606;-87.602;2024-03-08T09:58:20;99397.69;;;11.18;86.25
49342;BME280;35210;41.606;-87.602;2024-03-08T10:01:07;99397.44;;;11.22;86.43
49342;BME280;35210;41.606;-87.602;2024-03-08T10:03:35;99376.75;;;11.27;85.71
49342;BME280;35210;41.606;-87.602;2024-03-08T10:06:03;99387.69;;;11.22;86.58
49342;BME280;35210;41.606;-87.602;2024-03-08T10:08:32;99400.44;;;11.17;86.66
49342;BME280;35210;41.606;-87.602;2024-03-08T10:11:01;99398.75;;;11.16;86.94
49342;BME280;35210;41.606;-87.602;2024-03-08T10:13:29;99392.06;;;11.12;87.57
49342;BME280;35210;41.606;-87.602;2024-03-08T10:15:58;99395.78;;;11.09;87.85
49342;BME280;35210;41.606;-87.602;2024-03-08T10:18:29;99395.69;;;11.11;87.31
49342;BME280;35210;41.606;-87.602;2024-03-08T10:21:07;99399.53;;;11.07;87.46
49342;BME280;35210;41.606;-87.602;2024-03-08T10:23:37;99397.91;;;11.15;87.50
49342;BME280;35210;41.606;-87.602;2024-03-08T10:26:13;99396.53;;;11.11;87.67
49342;BME280;35210;41.606;-87.602;2024-03-08T10:28:42;99393.59;;;11.14;87.52
49342;BME280;35210;41.606;-87.602;2024-03-08T10:31:10;99392.78;;;11.14;88.10
49342;BME280;35210;41.606;-87.602;2024-03-08T10:33:41;99405.28;;;11.12;88.49
49342;BME280;35210;41.606;-87.602;2024-03-08T10:36:11;99411.28;;;11.14;88.97
49342;BME280;35210;41.606;-87.602;2024-03-08T10:38:40;99396.97;;;11.16;88.11
49342;BME280;35210;41.606;-87.602;2024-03-08T10:41:13;99390.97;;;11.14;88.90
49342;BME280;35210;41.606;-87.602;2024-03-08T10:43:56;99393.22;;;11.19;88.71
49342;BME280;35210;41.606;-87.602;2024-03-08T10:46:42;99391.41;;;11.31;87.96
49342;BME280;35210;41.606;-87.602;2024-03-08T10:49:17;99386.38;;;11.28;88.62
49342;BME280;35210;41.606;-87.602;2024-03-08T10:51:51;99394.66;;;11.23;88.59
49342;BME280;35210;41.606;-87.602;2024-03-08T10:54:20;99392.75;;;11.25;89.03
49342;BME280;35210;41.606;-87.602;2024-03-08T10:56:50;99377.84;;;11.24;89.21
49342;BME280;35210;41.606;-87.602;2024-03-08T10:59:19;99382.03;;;11.27;90.02
49342;BME280;35210;41.606;-87.602;2024-03-08T11:01:48;99380.97;;;11.29;90.07
49342;BME280;35210;41.606;-87.602;2024-03-08T11:04:18;99377.22;;;11.32;89.84
49342;BME280;35210;41.606;-87.602;2024-03-08T11:06:50;99378.06;;;11.32;90.27
49342;BME280;35210;41.606;-87.602;2024-03-08T11:09:30;99380.84;;;11.31;90.11
49342;BME280;35210;41.606;-87.602;2024-03-08T11:12:24;99365.47;;;11.25;90.88
49342;BME280;35210;41.606;-87.602;2024-03-08T11:14:56;99371.25;;;11.18;91.55
49342;BME280;35210;41.606;-87.602;2024-03-08T11:17:42;99367.16;;;11.26;91.10
49342;BME280;35210;41.606;-87.602;2024-03-08T11:20:15;99367.03;;;11.16;92.63
49342;BME280;35210;41.606;-87.602;2024-03-08T11:22:48;99351.59;;;11.11;92.66
49342;BME280;35210;41.606;-87.602;2024-03-08T11:25:35;99351.91;;;11.18;92.97
49342;BME280;35210;41.606;-87.602;2024-03-08T11:28:12;99354.78;;;11.26;91.47
49342;BME280;35210;41.606;-87.602;2024-03-08T11:31:21;99359.41;;;11.13;91.76
49342;BME280;35210;41.606;-87.602;2024-03-08T11:33:39;99356.16;;;11.09;92.93
49342;BME280;35210;41.606;-87.602;2024-03-08T11:36:12;99359.75;;;11.08;93.76
49342;BME280;35210;41.606;-87.602;2024-03-08T11:38:43;99367.69;;;11.08;93.85
49342;BME280;35210;41.606;-87.602;2024-03-08T11:41:11;99363.25;;;11.09;93.05
49342;BME280;35210;41.606;-87.602;2024-03-08T11:43:40;99365.06;;;11.08;93.57
49342;BME280;35210;41.606;-87.602;2024-03-08T11:46:09;99366.72;;;11.09;93.65
49342;BME280;35210;41.606;-87.602;2024-03-08T11:48:39;99357.25;;;11.07;93.13
49342;BME280;35210;41.606;-87.602;2024-03-08T11:51:08;99353.75;;;11.06;93.49
49342;BME280;35210;41.606;-87.602;2024-03-08T11:53:40;99355.69;;;11.04;93.59
49342;BME280;35210;41.606;-87.602;2024-03-08T11:56:08;99354.72;;;11.05;93.86
49342;BME280;35210;41.606;-87.602;2024-03-08T11:58:38;99352.81;;;11.07;93.48
49342;BME280;35210;41.606;-87.602;2024-03-08T12:01:07;99346.69;;;11.07;93.74
49342;BME280;35210;41.606;-87.602;2024-03-08T12:03:38;99343.66;;;11.11;92.99
49342;BME280;35210;41.606;-87.602;2024-03-08T12:06:08;99336.44;;;11.13;93.71
49342;BME280;35210;41.606;-87.602;2024-03-08T12:08:38;99325.41;;;11.08;93.62
49342;BME280;35210;41.606;-87.602;2024-03-08T12:11:07;99335.75;;;11.11;93.79
49342;BME280;35210;41.606;-87.602;2024-03-08T12:13:36;99335.03;;;11.09;93.92
49342;BME280;35210;41.606;-87.602;2024-03-08T12:16:06;99339.84;;;11.04;94.23
49342;BME280;35210;41.606;-87.602;2024-03-08T12:18:35;99328.06;;;11.08;94.49
49342;BME280;35210;41.606;-87.602;2024-03-08T12:21:07;99327.94;;;11.10;94.55
49342;BME280;35210;41.606;-87.602;2024-03-08T12:23:38;99324.31;;;11.11;94.03
49342;BME280;35210;41.606;-87.602;2024-03-08T12:26:10;99332.25;;;11.11;93.84
49342;BME280;35210;41.606;-87.602;2024-03-08T12:28:40;99334.19;;;11.09;94.42
49342;BME280;35210;41.606;-87.602;2024-03-08T12:31:11;99341.97;;;11.10;94.33
49342;BME280;35210;41.606;-87.602;2024-03-08T12:33:48;99324.44;;;11.09;94.19
49342;BME280;35210;41.606;-87.602;2024-03-08T12:36:17;99332.25;;;11.11;94.20
49342;BME280;35210;41.606;-87.602;2024-03-08T12:38:47;99331.41;;;11.10;93.82
49342;BME280;35210;41.606;-87.602;2024-03-08T12:41:16;99331.84;;;11.15;93.55
49342;BME280;35210;41.606;-87.602;2024-03-08T12:43:45;99327.72;;;11.02;93.77
49342;BME280;35210;41.606;-87.602;2024-03-08T12:46:15;99335.75;;;11.00;95.15
49342;BME280;35210;41.606;-87.602;2024-03-08T12:48:43;99327.22;;;11.08;94.47
49342;BME280;35210;41.606;-87.602;2024-03-08T12:51:13;99326.38;;;11.07;94.12
49342;BME280;35210;41.606;-87.602;2024-03-08T12:53:42;99332.28;;;11.00;94.77
49342;BME280;35210;41.606;-87.602;2024-03-08T12:56:12;99331.91;;;11.04;94.54